Time;durP1;ratioP1;P1;durP2;ratioP2;P2;SDS_P1;SDS_P2;PMS_P1;PMS_P2;Temp;Humidity;BMP_temperature;BMP_pressure;BME280_temperature;BME280_humidity;BME280_pressure;Samples;Min_cycle;Max_cycle;Signal;HPM_P1;HPM_P2
2022/08/07 00:00:50;;;;;;;0.57;0.00;;;13.20;99.90;;;;;;5072202;28;20017;-75
2022/08/07 00:03:15;;;;;;;0.10;0.00;;;13.20;99.90;;;;;;5073857;28;20104;-75
2022/08/07 00:05:41;;;;;;;1.08;0.00;;;13.20;99.90;;;;;;5073381;28;20020;-75
2022/08/07 00:08:07;;;;;;;0.25;0.10;;;13.20;99.90;;;;;;5074010;28;20024;-75
2022/08/07 00:10:33;;;;;;;1.50;0.10;;;13.10;99.90;;;;;;5073250;28;20034;-75
2022/08/07 00:13:00;;;;;;;0.65;0.00;;;13.10;99.90;;;;;;5073315;28;20032;-76
2022/08/07 00:15:26;;;;;;;2.33;0.20;;;13.10;99.90;;;;;;5072313;28;20432;-75
2022/08/07 00:17:52;;;;;;;0.32;0.00;;;13.10;99.90;;;;;;5073482;28;20024;-75
2022/08/07 00:20:17;;;;;;;1.05;0.00;;;13.00;99.90;;;;;;5072117;28;20033;-75
2022/08/07 00:22:43;;;;;;;0.57;0.10;;;13.00;99.90;;;;;;5073405;28;20087;-75
2022/08/07 00:25:09;;;;;;;1.08;0.00;;;12.90;99.90;;;;;;5072043;28;20028;-76
2022/08/07 00:27:35;;;;;;;0.80;0.22;;;12.90;99.90;;;;;;5073641;28;20032;-75
2022/08/07 00:30:01;;;;;;;0.13;0.00;;;12.90;99.90;;;;;;5073782;28;20103;-75
2022/08/07 00:32:27;;;;;;;1.10;0.00;;;12.90;99.90;;;;;;5073971;28;20112;-75
2022/08/07 00:34:52;;;;;;;0.10;0.00;;;12.90;99.90;;;;;;5073498;28;20485;-75
2022/08/07 00:37:18;;;;;;;0.65;0.00;;;12.90;99.90;;;;;;5073484;28;20493;-76
2022/08/07 00:39:44;;;;;;;0.20;0.10;;;12.90;99.90;;;;;;5076486;28;20017;-75
2022/08/07 00:42:10;;;;;;;0.80;0.00;;;12.90;99.90;;;;;;5077209;28;20063;-75
2022/08/07 00:44:35;;;;;;;2.40;0.10;;;12.90;99.90;;;;;;5077635;28;20025;-75
2022/08/07 00:47:04;;;;;;;0.60;0.25;;;12.90;99.90;;;;;;5075992;28;20119;-75
2022/08/07 00:49:30;;;;;;;0.10;0.00;;;12.80;99.90;;;;;;5077190;28;20017;-75
2022/08/07 00:51:56;;;;;;;0.73;0.28;;;12.80;99.90;;;;;;5075992;28;20480;-75
2022/08/07 00:54:22;;;;;;;0.47;0.10;;;12.80;99.90;;;;;;5077171;28;20051;-75
2022/08/07 00:56:49;;;;;;;0.70;0.10;;;12.80;99.90;;;;;;5077064;28;20025;-75
2022/08/07 00:59:14;;;;;;;1.70;0.00;;;12.70;99.90;;;;;;5076992;28;20099;-75
2022/08/07 01:01:41;;;;;;;0.73;0.00;;;12.70;99.90;;;;;;5075904;28;20063;-75
2022/08/07 01:04:07;;;;;;;0.70;0.10;;;12.60;99.90;;;;;;5075590;28;20016;-75
2022/08/07 01:06:33;;;;;;;0.65;0.30;;;12.60;99.90;;;;;;5076850;28;20458;-76
2022/08/07 01:09:00;;;;;;;3.63;0.00;;;12.60;99.90;;;;;;5076829;28;20055;-75
2022/08/07 01:11:27;;;;;;;2.35;0.00;;;12.50;99.90;;;;;;5076613;28;20041;-75
2022/08/07 01:13:52;;;;;;;0.80;0.00;;;12.50;99.90;;;;;;5076955;28;20016;-75
2022/08/07 01:16:18;;;;;;;0.20;0.00;;;12.50;99.90;;;;;;5076554;28;20027;-75
2022/08/07 01:18:44;;;;;;;2.60;0.00;;;12.50;99.90;;;;;;5075287;28;20020;-77
2022/08/07 01:21:14;;;;;;;0.28;0.00;;;12.50;99.90;;;;;;5076433;28;20024;-75
2022/08/07 01:23:42;;;;;;;0.30;0.00;;;12.40;99.90;;;;;;5075321;28;20115;-76
2022/08/07 01:26:09;;;;;;;0.38;0.17;;;12.30;99.90;;;;;;5076919;28;20020;-75
2022/08/07 01:28:36;;;;;;;1.75;0.10;;;12.40;99.90;;;;;;5076604;28;20024;-75
2022/08/07 01:31:02;;;;;;;0.95;0.20;;;12.30;99.90;;;;;;5076051;28;20035;-75
2022/08/07 01:33:28;;;;;;;1.00;0.00;;;12.30;99.90;;;;;;5076842;28;20086;-75
2022/08/07 01:36:01;;;;;;;1.40;0.20;;;12.20;99.90;;;;;;5076490;28;20059;-75
2022/08/07 01:38:28;;;;;;;0.43;0.00;;;12.20;99.90;;;;;;5076189;28;20488;-75
2022/08/07 01:41:02;;;;;;;2.55;0.20;;;12.20;99.90;;;;;;5076318;28;20028;-75
2022/08/07 01:43:29;;;;;;;0.25;0.05;;;12.20;99.90;;;;;;5076133;28;20033;-76
2022/08/07 01:45:57;;;;;;;1.77;0.30;;;12.20;99.90;;;;;;5076236;28;20033;-75
2022/08/07 01:48:24;;;;;;;1.00;0.30;;;12.20;99.90;;;;;;5076447;28;20462;-75
2022/08/07 01:51:00;;;;;;;3.35;0.10;;;12.10;99.90;;;;;;5075350;28;20020;-74
2022/08/07 01:53:28;;;;;;;0.40;0.20;;;12.10;99.90;;;;;;5076108;28;20056;-74
2022/08/07 01:55:59;;;;;;;1.83;0.10;;;12.10;99.90;;;;;;5076132;28;20020;-74
2022/08/07 01:58:31;;;;;;;0.47;0.22;;;12.10;99.90;;;;;;5075937;28;20428;-74
2022/08/07 02:01:06;;;;;;;1.38;0.28;;;12.10;99.90;;;;;;5075811;28;20024;-74
2022/08/07 02:03:36;;;;;;;0.20;0.10;;;12.10;99.90;;;;;;5076288;28;20025;-74
2022/08/07 02:06:05;;;;;;;0.95;0.30;;;12.10;99.90;;;;;;5075827;28;20095;-74
2022/08/07 02:08:37;;;;;;;0.40;0.00;;;12.00;99.90;;;;;;5076283;28;20063;-74
2022/08/07 02:11:04;;;;;;;3.40;0.10;;;12.00;99.90;;;;;;5075503;28;20056;-74
2022/08/07 02:13:32;;;;;;;0.20;0.10;;;12.00;99.90;;;;;;5076330;28;20025;-74
2022/08/07 02:16:00;;;;;;;2.80;0.52;;;12.10;99.90;;;;;;5075568;28;20012;-74
2022/08/07 02:18:28;;;;;;;0.50;0.15;;;11.90;99.90;;;;;;5075557;28;20031;-74
2022/08/07 02:20:56;;;;;;;1.02;0.45;;;12.00;99.90;;;;;;5075627;28;20024;-74
2022/08/07 02:23:23;;;;;;;1.02;0.10;;;11.90;99.90;;;;;;5076163;28;20035;-73
2022/08/07 02:25:52;;;;;;;0.40;0.10;;;11.90;99.90;;;;;;5075436;28;20056;-73
2022/08/07 02:28:18;;;;;;;;;;;12.30;99.90;;;;;;5076107;28;20055;-74
2022/08/07 02:30:45;;;;;;;2.95;0.68;;;11.90;99.90;;;;;;5073920;28;19913;-74
2022/08/07 02:33:12;;;;;;;1.00;0.20;;;11.80;99.90;;;;;;5074134;28;20035;-74
2022/08/07 02:35:39;;;;;;;0.50;0.32;;;11.80;99.90;;;;;;5074119;28;20020;-73
2022/08/07 02:38:06;;;;;;;3.83;0.28;;;11.80;99.90;;;;;;5075468;28;20044;-74
2022/08/07 02:40:33;;;;;;;4.72;1.30;;;11.80;99.90;;;;;;5073851;28;20048;-74
2022/08/07 02:43:01;;;;;;;1.65;0.00;;;11.80;99.90;;;;;;5075076;28;20032;-74
2022/08/07 02:45:29;;;;;;;0.80;0.22;;;11.80;99.90;;;;;;5073751;28;20481;-74
2022/08/07 02:47:55;;;;;;;5.15;0.20;;;11.80;99.90;;;;;;5074960;28;20028;-74
2022/08/07 02:50:21;;;;;;;1.25;0.22;;;11.80;99.90;;;;;;5074925;28;20028;-74
2022/08/07 02:52:53;;;;;;;2.28;0.17;;;11.70;99.90;;;;;;5074903;28;20017;-74
2022/08/07 02:55:22;;;;;;;1.25;0.40;;;11.80;99.90;;;;;;5074978;28;20050;-74
2022/08/07 02:57:49;;;;;;;4.50;0.35;;;11.70;99.90;;;;;;5074784;28;20016;-73
2022/08/07 03:00:16;;;;;;;2.92;0.17;;;11.70;99.90;;;;;;5073509;28;20477;-74
2022/08/07 03:02:45;;;;;;;1.13;0.22;;;11.90;99.90;;;;;;5073231;28;20059;-74
2022/08/07 03:05:12;;;;;;;0.60;0.47;;;11.70;99.90;;;;;;5073319;28;20012;-74
2022/08/07 03:07:39;;;;;;;0.95;0.25;;;11.60;99.90;;;;;;5074573;28;20035;-74
2022/08/07 03:10:06;;;;;;;4.55;0.68;;;11.60;99.90;;;;;;5074456;28;20021;-74
2022/08/07 03:12:33;;;;;;;0.47;0.20;;;11.50;99.90;;;;;;5073050;28;20064;-75
2022/08/07 03:15:00;;;;;;;1.20;0.17;;;11.50;99.90;;;;;;5074761;28;20474;-74
2022/08/07 03:17:26;;;;;;;0.90;0.20;;;11.50;99.90;;;;;;5074950;28;20027;-73
2022/08/07 03:19:53;;;;;;;0.40;0.17;;;11.40;99.90;;;;;;5074412;28;20470;-74
2022/08/07 03:22:20;;;;;;;1.63;0.32;;;11.40;99.90;;;;;;5074492;28;20032;-74
2022/08/07 03:24:47;;;;;;;1.17;0.10;;;11.40;99.90;;;;;;5074439;28;20111;-74
2022/08/07 03:27:14;;;;;;;1.05;0.40;;;11.40;99.90;;;;;;5074238;28;20436;-73
2022/08/07 03:29:45;;;;;;;2.05;0.30;;;11.40;99.90;;;;;;5074191;28;20478;-74
2022/08/07 03:32:11;;;;;;;1.23;0.20;;;11.30;99.90;;;;;;5074309;28;20158;-74
2022/08/07 03:34:39;;;;;;;1.35;0.30;;;11.30;99.90;;;;;;5072775;28;20056;-74
2022/08/07 03:37:08;;;;;;;1.15;0.20;;;11.30;99.90;;;;;;5074020;28;20025;-74
2022/08/07 03:39:35;;;;;;;0.70;0.10;;;11.30;99.90;;;;;;5074071;28;20074;-73
2022/08/07 03:42:03;;;;;;;1.17;0.10;;;11.20;99.90;;;;;;5074470;28;20021;-74
2022/08/07 03:44:30;;;;;;;1.73;0.20;;;11.20;99.90;;;;;;5074266;28;20031;-74
2022/08/07 03:46:56;;;;;;;0.90;0.17;;;11.20;99.90;;;;;;5072708;28;20032;-74
2022/08/07 03:49:22;;;;;;;0.40;0.05;;;11.20;99.90;;;;;;5072650;28;20029;-74
2022/08/07 03:51:49;;;;;;;3.78;0.45;;;11.10;99.90;;;;;;5073868;28;20366;-73
2022/08/07 03:54:14;;;;;;;0.88;0.17;;;11.10;99.90;;;;;;5072584;28;20473;-74
2022/08/07 03:56:41;;;;;;;1.67;0.30;;;11.10;99.90;;;;;;5073725;28;20028;-74
2022/08/07 03:59:10;;;;;;;0.90;0.30;;;11.10;99.90;;;;;;5073669;28;20016;-74
2022/08/07 04:01:42;;;;;;;1.85;0.10;;;11.20;99.90;;;;;;5073694;28;20427;-74
2022/08/07 04:04:09;;;;;;;0.77;0.03;;;11.20;99.90;;;;;;5072405;28;20430;-73
2022/08/07 04:06:42;;;;;;;0.40;0.10;;;11.10;99.90;;;;;;5073630;28;20390;-75
2022/08/07 04:09:08;;;;;;;1.15;0.30;;;11.10;99.90;;;;;;5072248;28;20028;-74
2022/08/07 04:11:34;;;;;;;0.70;0.13;;;11.10;99.90;;;;;;5073499;28;20035;-74
2022/08/07 04:14:02;;;;;;;0.50;0.10;;;11.10;99.90;;;;;;5073407;28;20035;-74
2022/08/07 04:16:28;;;;;;;0.63;0.10;;;11.10;99.90;;;;;;5073729;28;20481;-74
2022/08/07 04:18:54;;;;;;;4.20;0.90;;;11.10;99.90;;;;;;5073509;28;20108;-74
2022/08/07 04:21:19;;;;;;;0.20;0.00;;;11.10;99.90;;;;;;5072367;28;20066;-74
2022/08/07 04:23:46;;;;;;;2.95;0.40;;;11.10;99.90;;;;;;5072483;28;20036;-74
2022/08/07 04:26:13;;;;;;;1.20;0.00;;;11.00;99.90;;;;;;5073525;28;20090;-74
2022/08/07 04:28:42;;;;;;;1.63;0.20;;;11.00;99.90;;;;;;5073878;28;20024;-74
2022/08/07 04:31:08;;;;;;;;;;;11.00;99.90;;;;;;5073698;28;20123;-74
2022/08/07 04:33:35;;;;;;;1.25;0.35;;;11.00;99.90;;;;;;5073402;28;19916;-74
2022/08/07 04:36:01;;;;;;;0.30;0.20;;;11.10;99.90;;;;;;5073697;28;20024;-74
2022/08/07 04:38:27;;;;;;;0.50;0.00;;;11.10;99.90;;;;;;5073500;28;20421;-74
2022/08/07 04:40:53;;;;;;;0.38;0.00;;;11.10;99.90;;;;;;5073260;28;20028;-74
2022/08/07 04:43:24;;;;;;;0.32;0.10;;;11.10;99.90;;;;;;5073517;28;20071;-74
2022/08/07 04:46:13;;;;;;;1.05;0.10;;;11.10;99.90;;;;;;5074329;28;20047;-74
2022/08/07 04:48:42;;;;;;;1.25;0.55;;;11.10;99.90;;;;;;5073401;28;20477;-74
2022/08/07 04:51:29;;;;;;;0.47;0.10;;;11.30;99.90;;;;;;5072184;28;20500;-74
2022/08/07 04:54:11;;;;;;;0.57;0.10;;;11.40;99.90;;;;;;5073791;28;20021;-74
2022/08/07 04:56:46;;;;;;;0.40;0.00;;;11.40;99.90;;;;;;5073085;28;20025;-74
2022/08/07 04:59:22;;;;;;;1.23;0.22;;;11.50;99.90;;;;;;5073231;28;20032;-74
2022/08/07 05:02:00;;;;;;;0.90;0.15;;;11.60;99.90;;;;;;5073274;28;20021;-74
2022/08/07 05:04:49;;;;;;;0.35;0.08;;;11.70;99.90;;;;;;5071886;28;20040;-74
2022/08/07 05:07:29;;;;;;;0.43;0.10;;;11.80;99.90;;;;;;5073721;28;20029;-74
2022/08/07 05:10:11;;;;;;;2.30;0.10;;;11.90;99.90;;;;;;5073042;28;20067;-74
2022/08/07 05:12:47;;;;;;;0.10;0.00;;;12.00;99.90;;;;;;5072875;28;20082;-74
2022/08/07 05:15:19;;;;;;;0.50;0.30;;;12.10;99.90;;;;;;5072955;28;20017;-74
2022/08/07 05:17:52;;;;;;;0.17;0.00;;;12.20;99.90;;;;;;5072997;28;20028;-74
2022/08/07 05:20:23;;;;;;;1.95;0.15;;;12.30;99.90;;;;;;5072909;28;20052;-74
2022/08/07 05:22:51;;;;;;;0.47;0.10;;;12.40;99.90;;;;;;5071679;28;20017;-76
2022/08/07 05:25:20;;;;;;;1.65;0.15;;;12.50;99.90;;;;;;5075012;28;20017;-75
2022/08/07 05:27:46;;;;;;;;;;;12.60;99.90;;;;;;5077537;28;20024;-76
2022/08/07 05:30:12;;;;;;;0.75;0.10;;;12.90;99.90;;;;;;5076560;28;20372;-76
2022/08/07 05:32:39;;;;;;;2.20;0.52;;;12.80;99.90;;;;;;5076208;28;20020;-76
2022/08/07 05:35:07;;;;;;;2.70;0.20;;;13.00;99.90;;;;;;5076324;28;20017;-75
2022/08/07 05:37:34;;;;;;;0.28;0.10;;;13.10;99.90;;;;;;5076541;28;20028;-75
2022/08/07 05:40:00;;;;;;;1.25;0.20;;;13.20;99.90;;;;;;5076196;28;20013;-75
2022/08/07 05:42:26;;;;;;;1.95;0.20;;;13.40;99.90;;;;;;5076158;28;20432;-76
2022/08/07 05:44:53;;;;;;;0.95;0.30;;;13.50;99.90;;;;;;5076188;28;20103;-77
2022/08/07 05:47:20;;;;;;;0.30;0.13;;;13.70;99.90;;;;;;5074785;28;20021;-76
2022/08/07 05:49:50;;;;;;;0.45;0.08;;;13.80;99.90;;;;;;5074706;28;20505;-76
2022/08/07 05:52:19;;;;;;;0.17;0.03;;;13.90;99.90;;;;;;5076271;28;20032;-76
2022/08/07 05:54:44;;;;;;;2.25;0.00;;;14.10;99.90;;;;;;5075992;28;20025;-75
2022/08/07 05:57:11;;;;;;;0.40;0.00;;;14.20;99.90;;;;;;5075888;28;20016;-75
2022/08/07 05:59:39;;;;;;;0.93;0.30;;;14.30;99.90;;;;;;5075934;28;20012;-75
2022/08/07 06:02:06;;;;;;;1.27;0.10;;;14.50;99.90;;;;;;5074414;28;20071;-76
2022/08/07 06:04:38;;;;;;;0.80;0.10;;;14.60;99.90;;;;;;5074486;28;20029;-75
2022/08/07 06:07:04;;;;;;;0.40;0.20;;;14.80;99.90;;;;;;5075787;28;20029;-75
2022/08/07 06:09:34;;;;;;;1.00;0.15;;;14.90;99.90;;;;;;5075732;28;20024;-75
2022/08/07 06:12:00;;;;;;;2.55;0.30;;;15.10;99.90;;;;;;5075175;28;20067;-75
2022/08/07 06:14:25;;;;;;;1.60;0.52;;;15.20;99.90;;;;;;5075913;28;20052;-75
2022/08/07 06:16:52;;;;;;;0.80;0.52;;;15.40;99.90;;;;;;5075755;28;20100;-75
2022/08/07 06:19:19;;;;;;;6.65;1.42;;;15.60;99.90;;;;;;5075459;28;20036;-75
2022/08/07 06:21:45;;;;;;;0.93;0.10;;;15.80;99.90;;;;;;5074189;28;20020;-75
2022/08/07 06:24:11;;;;;;;1.95;0.43;;;15.90;99.90;;;;;;5074247;28;20032;-75
2022/08/07 06:26:40;;;;;;;0.28;0.10;;;16.10;99.90;;;;;;5075385;28;20546;-75
2022/08/07 06:29:06;;;;;;;1.17;0.25;;;16.20;99.90;;;;;;5075523;28;20056;-75
2022/08/07 06:31:32;;;;;;;0.50;0.22;;;16.30;99.90;;;;;;5073874;28;20067;-75
2022/08/07 06:33:57;;;;;;;0.57;0.30;;;16.50;99.90;;;;;;5073934;28;20133;-76
2022/08/07 06:36:25;;;;;;;1.50;0.35;;;16.60;99.90;;;;;;5074904;28;20416;-75
2022/08/07 06:38:52;;;;;;;1.40;0.40;;;16.70;99.90;;;;;;5075215;28;20066;-75
2022/08/07 06:41:39;;;;;;;1.70;0.68;;;16.90;99.90;;;;;;5074981;28;20020;-75
2022/08/07 06:44:05;;;;;;;1.65;0.28;;;17.10;99.90;;;;;;5075088;28;20032;-75
2022/08/07 06:46:31;;;;;;;0.85;0.00;;;17.20;99.90;;;;;;5073679;28;20116;-75
2022/08/07 06:48:57;;;;;;;0.65;0.10;;;17.20;99.90;;;;;;5074975;28;20044;-76
2022/08/07 06:51:27;;;;;;;1.00;0.13;;;17.50;99.90;;;;;;5073428;28;20032;-75
2022/08/07 06:53:56;;;;;;;1.45;0.00;;;17.50;99.90;;;;;;5073699;28;20517;-75
2022/08/07 06:56:38;;;;;;;1.08;0.30;;;17.50;99.90;;;;;;5075042;28;20518;-75
2022/08/07 06:59:09;;;;;;;0.20;0.00;;;17.50;99.90;;;;;;5075312;28;20462;-75
2022/08/07 07:01:36;;;;;;;1.00;0.25;;;17.60;99.90;;;;;;5074552;28;20050;-75
2022/08/07 07:04:04;;;;;;;4.15;0.13;;;17.80;99.90;;;;;;5074750;28;20035;-75
2022/08/07 07:06:31;;;;;;;0.60;0.10;;;17.80;99.90;;;;;;5075114;28;20369;-75
2022/08/07 07:09:25;;;;;;;1.08;0.10;;;17.90;99.90;;;;;;5073376;28;20021;-75
2022/08/07 07:12:05;;;;;;;0.30;0.00;;;18.00;99.90;;;;;;5090290;22;20419;-75
2022/08/07 07:14:46;;;;;;;1.35;0.32;;;18.10;99.90;;;;;;5093364;28;20055;-75
2022/08/07 07:17:17;;;;;;;0.20;0.10;;;18.30;99.90;;;;;;5093545;28;20027;-75
2022/08/07 07:19:49;;;;;;;0.70;0.20;;;18.40;99.90;;;;;;5094762;28;20020;-75
2022/08/07 07:22:16;;;;;;;0.98;0.10;;;18.50;99.90;;;;;;5094475;28;20024;-75
2022/08/07 07:24:43;;;;;;;1.65;0.00;;;18.60;99.90;;;;;;5093273;28;20036;-75
2022/08/07 07:27:12;;;;;;;2.70;0.10;;;18.70;99.90;;;;;;5094715;28;20036;-75
2022/08/07 07:29:42;;;;;;;0.73;0.10;;;18.80;99.90;;;;;;5094449;28;20072;-75
2022/08/07 07:32:11;;;;;;;0.52;0.20;;;18.90;99.90;;;;;;5094379;28;20555;-75
2022/08/07 07:34:41;;;;;;;2.13;0.75;;;19.00;99.90;;;;;;5094312;28;20370;-75
2022/08/07 07:37:09;;;;;;;0.55;0.13;;;19.00;99.90;;;;;;5094129;28;20066;-75
2022/08/07 07:39:37;;;;;;;0.68;0.17;;;19.00;99.90;;;;;;5094498;28;20016;-75
2022/08/07 07:42:05;;;;;;;0.82;0.15;;;19.10;99.90;;;;;;5094118;28;20028;-75
2022/08/07 07:44:32;;;;;;;0.63;0.10;;;19.20;99.90;;;;;;5093974;28;20028;-75
2022/08/07 07:46:59;;;;;;;0.65;0.10;;;19.20;99.90;;;;;;5094118;28;20099;-75
2022/08/07 07:49:27;;;;;;;2.58;0.08;;;19.30;99.90;;;;;;5093247;28;20020;-75
2022/08/07 07:51:55;;;;;;;0.30;0.00;;;19.40;99.90;;;;;;5092675;28;20020;-75
2022/08/07 07:54:22;;;;;;;1.23;0.00;;;20.00;99.90;;;;;;5094019;28;20048;-75
2022/08/07 07:56:51;;;;;;;2.40;0.73;;;19.60;99.90;;;;;;5094054;28;20020;-75
2022/08/07 07:59:19;;;;;;;0.40;0.00;;;19.70;99.90;;;;;;5092591;28;20028;-77
2022/08/07 08:01:48;;;;;;;0.17;0.00;;;20.60;99.90;;;;;;5092703;28;20023;-75
2022/08/07 08:04:16;;;;;;;0.63;0.00;;;19.80;99.90;;;;;;5092559;28;20427;-75
2022/08/07 08:06:44;;;;;;;0.22;0.00;;;19.90;99.90;;;;;;5093755;28;20031;-75
2022/08/07 08:09:10;;;;;;;2.53;0.30;;;19.70;99.90;;;;;;5093743;28;20028;-75
2022/08/07 08:11:36;;;;;;;0.63;0.22;;;19.60;99.90;;;;;;5093730;28;20028;-75
2022/08/07 08:14:02;;;;;;;0.10;0.00;;;19.70;99.90;;;;;;5092506;28;20485;-75
2022/08/07 08:16:33;;;;;;;0.40;0.00;;;19.80;99.90;;;;;;5093635;28;20020;-75
2022/08/07 08:18:59;;;;;;;0.60;0.10;;;19.70;99.90;;;;;;5093789;28;20492;-75
2022/08/07 08:27:08;;;;;;;0.08;0.00;;;20.10;99.90;;;;;;5094278;28;20078;-75
2022/08/07 08:29:51;;;;;;;0.75;0.15;;;20.20;99.90;;;;;;5093611;28;20032;-75
2022/08/07 08:32:23;;;;;;;0.32;0.03;;;20.40;99.90;;;;;;5091995;28;20032;-75
2022/08/07 08:34:51;;;;;;;0.98;0.00;;;20.60;99.90;;;;;;5093604;28;20035;-75
2022/08/07 08:37:19;;;;;;;2.33;0.17;;;20.80;99.90;;;;;;5093489;28;20023;-77
2022/08/07 08:39:47;;;;;;;0.15;0.05;;;20.90;97.60;;;;;;5093504;28;20020;-75
2022/08/07 08:42:27;;;;;;;0.20;0.00;;;20.60;97.80;;;;;;5093502;28;20020;-75
2022/08/07 08:44:59;;;;;;;0.00;0.00;;;20.60;97.60;;;;;;5093747;28;20024;-75
2022/08/07 08:47:35;;;;;;;2.03;0.25;;;20.70;97.50;;;;;;5092093;28;20054;-75
2022/08/07 08:50:19;;;;;;;3.22;0.43;;;20.70;96.60;;;;;;5093396;28;20443;-75
2022/08/07 08:52:52;;;;;;;1.05;0.00;;;20.80;96.40;;;;;;5093310;28;20016;-75
2022/08/07 08:55:56;;;;;;;0.45;0.00;;;20.90;97.20;;;;;;5092081;28;20449;-75
2022/08/07 08:58:44;;;;;;;3.40;0.00;;;21.00;95.50;;;;;;5092444;28;20426;-74
2022/08/07 09:01:15;;;;;;;0.60;0.20;;;21.10;96.50;;;;;;5098020;28;20101;-74
2022/08/07 09:03:49;;;;;;;1.27;0.00;;;21.20;93.30;;;;;;5096716;28;20035;-74
2022/08/07 09:06:38;;;;;;;0.10;0.00;;;21.40;94.40;;;;;;5096332;28;20031;-74
2022/08/07 09:09:42;;;;;;;0.20;0.00;;;21.60;93.90;;;;;;5097540;28;20024;-74
2022/08/07 09:12:16;;;;;;;0.38;0.00;;;21.80;92.80;;;;;;5089614;28;20051;-74
2022/08/07 09:15:03;;;;;;;0.38;0.00;;;21.90;91.00;;;;;;5097740;28;20028;-74
2022/08/07 09:17:56;;;;;;;2.10;0.63;;;21.70;90.40;;;;;;5096126;28;20028;-74
2022/08/07 09:20:47;;;;;;;0.65;0.00;;;21.70;87.90;;;;;;5097298;28;20031;-74
2022/08/07 09:23:31;;;;;;;0.22;0.00;;;21.70;88.10;;;;;;5097738;28;20024;-74
2022/08/07 09:26:10;;;;;;;0.10;0.00;;;21.70;89.30;;;;;;5095832;28;20032;-74
2022/08/07 09:28:43;;;;;;;0.55;0.00;;;21.60;87.80;;;;;;5097310;28;20503;-74
2022/08/07 09:31:23;;;;;;;1.50;0.00;;;21.70;88.10;;;;;;5096785;28;20032;-74
2022/08/07 09:34:28;;;;;;;0.65;0.00;;;21.80;87.80;;;;;;5097003;28;20103;-74
2022/08/07 09:37:24;;;;;;;1.05;0.22;;;22.10;90.70;;;;;;5096916;28;20027;-74
2022/08/07 09:40:04;;;;;;;0.13;0.00;;;22.20;88.00;;;;;;5096809;28;20012;-74
2022/08/07 09:42:39;;;;;;;0.65;0.00;;;22.30;90.30;;;;;;5095410;28;20035;-74
2022/08/07 09:45:33;;;;;;;1.77;0.00;;;22.50;87.80;;;;;;5096886;28;20027;-74
2022/08/07 09:48:11;;;;;;;0.25;0.03;;;22.70;86.50;;;;;;5096750;28;20051;-74
2022/08/07 09:51:04;;;;;;;0.75;0.00;;;22.90;82.00;;;;;;5096519;28;20085;-74
2022/08/07 09:53:37;;;;;;;0.85;0.30;;;22.60;77.70;;;;;;5096470;28;20099;-74
2022/08/07 09:56:24;;;;;;;1.00;0.00;;;22.80;83.50;;;;;;5095144;28;20063;-74
2022/08/07 09:59:03;;;;;;;0.47;0.00;;;22.80;79.10;;;;;;5096689;28;20055;-74
2022/08/07 10:01:35;;;;;;;;;;;22.70;76.40;;;;;;5095944;28;20020;-74
2022/08/07 10:04:19;;;;;;;0.65;0.00;;;22.70;80.80;;;;;;5096274;28;19904;-74
2022/08/07 10:07:02;;;;;;;0.30;0.00;;;23.00;83.00;;;;;;5096171;28;20047;-74
2022/08/07 10:09:40;;;;;;;0.60;0.00;;;23.10;84.70;;;;;;5094751;28;20059;-74
2022/08/07 10:12:33;;;;;;;0.20;0.00;;;23.30;79.60;;;;;;5094978;28;20039;-74
2022/08/07 10:15:19;;;;;;;2.42;0.05;;;23.40;77.90;;;;;;5096359;28;20487;-74
2022/08/07 10:18:09;;;;;;;1.77;0.00;;;23.40;80.10;;;;;;5096476;28;20338;-74
2022/08/07 10:21:01;;;;;;;3.00;0.63;;;23.60;79.70;;;;;;5096437;28;20362;-74
2022/08/07 10:23:39;;;;;;;0.20;0.10;;;23.70;75.70;;;;;;5094541;28;20111;-74
2022/08/07 10:26:29;;;;;;;0.08;0.00;;;23.80;74.40;;;;;;5096336;28;20051;-74
2022/08/07 10:29:17;;;;;;;0.82;0.00;;;23.60;72.70;;;;;;5096375;28;20024;-74
2022/08/07 10:31:53;;;;;;;0.13;0.00;;;23.80;74.20;;;;;;5095907;28;20031;-74
2022/08/07 10:34:36;;;;;;;0.00;0.00;;;23.90;72.20;;;;;;5094367;28;20044;-74
2022/08/07 10:37:34;;;;;;;0.45;0.00;;;24.10;72.00;;;;;;5095488;28;20049;-74
2022/08/07 10:40:23;;;;;;;0.28;0.10;;;24.30;72.20;;;;;;5095860;28;20031;-74
2022/08/07 10:43:06;;;;;;;;;;;24.30;69.20;;;;;;5095775;28;20069;-74
2022/08/07 10:45:31;;;;;;;1.13;0.00;;;24.30;65.90;;;;;;5095638;28;19927;-74
2022/08/07 10:48:15;;;;;;;0.95;0.00;;;24.00;66.70;;;;;;5095343;28;20066;-74
2022/08/07 10:51:00;;;;;;;0.22;0.10;;;23.60;69.00;;;;;;5093870;28;20032;-74
2022/08/07 10:53:52;;;;;;;1.08;0.00;;;23.60;71.80;;;;;;5095108;28;20020;-74
2022/08/07 10:56:38;;;;;;;1.75;0.00;;;24.00;71.00;;;;;;5093931;28;20036;-74
2022/08/07 10:59:21;;;;;;;0.73;0.00;;;24.20;66.00;;;;;;5095105;28;20028;-75
2022/08/07 11:01:53;;;;;;;1.40;0.00;;;24.50;66.90;;;;;;5093615;28;20032;-75
2022/08/07 11:04:44;;;;;;;0.95;0.10;;;24.70;63.70;;;;;;5095440;28;20024;-75
2022/08/07 11:07:49;;;;;;;0.30;0.00;;;24.50;63.50;;;;;;5094740;28;20035;-75
2022/08/07 11:10:26;;;;;;;0.20;0.00;;;24.60;63.80;;;;;;5095054;28;20020;-77
2022/08/07 11:13:10;;;;;;;0.00;0.00;;;24.80;63.90;;;;;;5094573;28;20035;-75
2022/08/07 11:15:40;;;;;;;0.10;0.00;;;24.90;62.80;;;;;;5094855;28;20438;-75
2022/08/07 11:18:17;;;;;;;0.85;0.00;;;24.80;62.40;;;;;;5094686;28;20039;-75
2022/08/07 11:21:03;;;;;;;2.60;0.63;;;25.00;60.00;;;;;;5094572;28;20031;-75
2022/08/07 11:23:42;;;;;;;0.10;0.00;;;24.90;59.80;;;;;;5093340;28;20039;-75
2022/08/07 11:26:32;;;;;;;0.93;0.00;;;24.90;61.00;;;;;;5094362;28;20031;-75
2022/08/07 11:29:03;;;;;;;0.57;0.00;;;25.00;58.10;;;;;;5094746;28;20027;-75
2022/08/07 11:31:55;;;;;;;1.48;0.13;;;25.20;61.70;;;;;;5092938;28;20123;-75
2022/08/07 11:34:49;;;;;;;0.00;0.00;;;25.50;61.90;;;;;;5090011;28;20035;-77
2022/08/07 11:37:27;;;;;;;0.40;0.13;;;25.80;60.10;;;;;;5093347;28;20068;-75
2022/08/07 11:40:03;;;;;;;0.20;0.00;;;26.10;57.60;;;;;;5093058;28;20016;-75
2022/08/07 11:42:39;;;;;;;0.55;0.00;;;26.30;60.50;;;;;;5094575;28;20052;-75
2022/08/07 11:45:23;;;;;;;0.20;0.00;;;26.40;57.20;;;;;;5094263;28;20493;-75
2022/08/07 11:48:22;;;;;;;0.88;0.00;;;26.40;58.60;;;;;;5093937;28;20389;-75
2022/08/07 11:51:12;;;;;;;1.55;0.00;;;26.70;57.90;;;;;;5093899;28;20081;-75
2022/08/07 11:53:56;;;;;;;1.98;0.00;;;26.80;55.50;;;;;;5092569;28;20026;-75
2022/08/07 11:56:49;;;;;;;0.50;0.10;;;27.00;55.90;;;;;;5093948;28;20028;-75
2022/08/07 11:59:45;;;;;;;0.55;0.00;;;27.30;54.10;;;;;;5092589;28;20024;-75
2022/08/07 12:02:29;;;;;;;0.52;0.00;;;27.60;55.00;;;;;;5092513;28;20032;-75
2022/08/07 12:05:23;;;;;;;0.13;0.00;;;27.80;51.10;;;;;;5093926;28;20028;-75
2022/08/07 12:08:07;;;;;;;0.30;0.00;;;27.90;52.10;;;;;;5092455;28;20023;-75
2022/08/07 12:10:38;;;;;;;0.30;0.05;;;28.00;50.90;;;;;;5093789;28;20054;-75
2022/08/07 12:14:02;;;;;;;0.17;0.00;;;28.10;49.90;;;;;;5092365;28;20036;-75
2022/08/07 12:16:35;;;;;;;0.10;0.00;;;28.20;49.90;;;;;;5051340;28;20052;-75
2022/08/07 12:19:11;;;;;;;0.47;0.00;;;28.30;50.70;;;;;;5034672;28;20025;-75
2022/08/07 12:21:55;;;;;;;0.60;0.00;;;28.00;48.10;;;;;;5066894;28;20496;-75
2022/08/07 12:27:43;;;;;;;0.10;0.00;;;28.40;52.80;;;;;;5094091;28;20123;-75
2022/08/07 12:30:09;;;;;;;1.25;0.10;;;28.60;53.50;;;;;;5093526;28;20495;-75
2022/08/07 12:32:56;;;;;;;1.98;0.00;;;28.20;51.80;;;;;;5094583;28;20020;-75
2022/08/07 12:35:25;;;;;;;0.40;0.22;;;28.30;54.00;;;;;;5093492;28;20024;-75
2022/08/07 12:37:53;;;;;;;0.88;0.10;;;28.50;53.40;;;;;;5093317;28;20016;-75
2022/08/07 12:40:22;;;;;;;1.50;0.52;;;28.60;53.40;;;;;;5094668;28;20404;-76
2022/08/07 12:42:52;;;;;;;1.10;0.20;;;28.90;53.60;;;;;;5091720;28;20028;-75
2022/08/07 12:45:22;;;;;;;4.10;0.65;;;29.10;53.90;;;;;;5093219;28;20024;-76
2022/08/07 12:48:10;;;;;;;0.65;0.28;;;29.10;52.90;;;;;;5093875;28;20016;-75
2022/08/07 12:50:49;;;;;;;2.28;0.30;;;29.50;55.20;;;;;;5093582;28;20051;-75
2022/08/07 12:53:24;;;;;;;0.68;0.30;;;29.70;54.00;;;;;;5092146;28;20430;-75
2022/08/07 12:55:55;;;;;;;1.23;0.20;;;30.00;52.60;;;;;;5093608;28;20358;-75
2022/08/07 12:58:22;;;;;;;1.33;0.10;;;29.70;52.90;;;;;;5093310;28;20023;-75
2022/08/07 13:00:59;;;;;;;3.40;0.40;;;29.90;54.10;;;;;;5092946;28;20055;-75
2022/08/07 13:03:58;;;;;;;2.00;0.50;;;29.90;51.10;;;;;;5091664;28;20025;-75
2022/08/07 13:06:59;;;;;;;1.45;0.22;;;29.60;51.90;;;;;;5093348;28;20059;-75
2022/08/07 13:09:54;;;;;;;1.75;0.38;;;29.90;52.20;;;;;;5091789;28;20435;-75
2022/08/07 13:12:32;;;;;;;1.23;0.30;;;30.10;52.20;;;;;;5092866;28;20434;-75
2022/08/07 13:15:02;;;;;;;2.40;0.60;;;30.30;51.90;;;;;;5091656;28;20114;-75
2022/08/07 13:17:48;;;;;;;0.50;0.10;;;30.90;51.20;;;;;;5093079;28;20028;-76
2022/08/07 13:20:20;;;;;;;1.27;0.50;;;31.10;49.50;;;;;;5093513;28;20024;-76
2022/08/07 13:22:55;;;;;;;3.67;0.28;;;30.70;47.70;;;;;;5092928;28;20028;-75
2022/08/07 13:25:49;;;;;;;0.30;0.10;;;30.50;50.20;;;;;;5093542;28;20035;-76
2022/08/07 13:28:29;;;;;;;0.57;0.17;;;30.70;49.70;;;;;;5092237;28;20136;-75